sensor_id;sensor_type;location;lat;lon;timestamp;P1;durP1;ratioP1;P2;durP2;ratioP2
78322;SDS011;67583;50.616;-3.404;2023-09-30T00:00:41;5.38;;;2.45;;
78322;SDS011;67583;50.616;-3.404;2023-09-30T00:03:07;7.35;;;3.25;;
78322;SDS011;67583;50.616;-3.404;2023-09-30T00:05:33;3.90;;;2.08;;
78322;SDS011;67583;50.616;-3.404;2023-09-30T00:07:58;7.50;;;2.45;;
78322;SDS011;67583;50.616;-3.404;2023-09-30T00:10:24;3.97;;;2.20;;
78322;SDS011;67583;50.616;-3.404;2023-09-30T00:12:49;6.97;;;2.55;;
78322;SDS011;67583;50.616;-3.404;2023-09-30T00:15:14;4.25;;;2.25;;
78322;SDS011;67583;50.616;-3.404;2023-09-30T00:17:40;4.03;;;2.10;;
78322;SDS011;67583;50.616;-3.404;2023-09-30T00:20:05;4.55;;;2.22;;
78322;SDS011;67583;50.616;-3.404;2023-09-30T00:22:32;6.55;;;2.38;;
78322;SDS011;67583;50.616;-3.404;2023-09-30T00:24:57;5.72;;;2.85;;
78322;SDS011;67583;50.616;-3.404;2023-09-30T00:27:23;4.80;;;2.25;;
78322;SDS011;67583;50.616;-3.404;2023-09-30T00:29:48;4.93;;;2.03;;
78322;SDS011;67583;50.616;-3.404;2023-09-30T00:32:14;6.00;;;2.22;;
78322;SDS011;67583;50.616;-3.404;2023-09-30T00:34:39;6.60;;;2.53;;
78322;SDS011;67583;50.616;-3.404;2023-09-30T00:37:05;5.88;;;2.38;;
78322;SDS011;67583;50.616;-3.404;2023-09-30T00:39:32;4.95;;;2.17;;
78322;SDS011;67583;50.616;-3.404;2023-09-30T00:41:57;5.65;;;2.25;;
78322;SDS011;67583;50.616;-3.404;2023-09-30T00:44:26;4.53;;;2.22;;
78322;SDS011;67583;50.616;-3.404;2023-09-30T00:46:52;5.63;;;2.20;;
78322;SDS011;67583;50.616;-3.404;2023-09-30T00:49:17;5.63;;;2.17;;
78322;SDS011;67583;50.616;-3.404;2023-09-30T00:51:44;7.07;;;2.50;;
78322;SDS011;67583;50.616;-3.404;2023-09-30T00:54:10;5.13;;;2.00;;
78322;SDS011;67583;50.616;-3.404;2023-09-30T00:56:35;6.10;;;2.25;;
78322;SDS011;67583;50.616;-3.404;2023-09-30T01:01:32;5.80;;;2.37;;
78322;SDS011;67583;50.616;-3.404;2023-09-30T01:03:58;6.50;;;2.60;;
78322;SDS011;67583;50.616;-3.404;2023-09-30T01:06:24;3.90;;;2.03;;
78322;SDS011;67583;50.616;-3.404;2023-09-30T01:08:49;6.55;;;2.05;;
78322;SDS011;67583;50.616;-3.404;2023-09-30T01:11:15;6.68;;;2.40;;
78322;SDS011;67583;50.616;-3.404;2023-09-30T01:13:41;6.22;;;2.80;;
78322;SDS011;67583;50.616;-3.404;2023-09-30T01:16:08;7.07;;;2.55;;
78322;SDS011;67583;50.616;-3.404;2023-09-30T01:18:35;4.93;;;2.25;;
78322;SDS011;67583;50.616;-3.404;2023-09-30T01:21:02;5.05;;;2.25;;
78322;SDS011;67583;50.616;-3.404;2023-09-30T01:23:29;9.20;;;2.63;;
78322;SDS011;67583;50.616;-3.404;2023-09-30T01:25:55;7.03;;;2.40;;
78322;SDS011;67583;50.616;-3.404;2023-09-30T01:28:21;7.22;;;2.13;;
78322;SDS011;67583;50.616;-3.404;2023-09-30T01:30:46;6.60;;;2.28;;
78322;SDS011;67583;50.616;-3.404;2023-09-30T01:33:11;6.50;;;1.92;;
78322;SDS011;67583;50.616;-3.404;2023-09-30T01:35:37;4.22;;;1.77;;
78322;SDS011;67583;50.616;-3.404;2023-09-30T01:38:02;3.95;;;2.13;;
78322;SDS011;67583;50.616;-3.404;2023-09-30T01:40:27;6.63;;;2.13;;
78322;SDS011;67583;50.616;-3.404;2023-09-30T01:42:53;4.28;;;2.10;;
78322;SDS011;67583;50.616;-3.404;2023-09-30T01:45:18;5.07;;;1.88;;
78322;SDS011;67583;50.616;-3.404;2023-09-30T01:47:43;7.70;;;2.10;;
78322;SDS011;67583;50.616;-3.404;2023-09-30T01:50:10;3.80;;;1.90;;
78322;SDS011;67583;50.616;-3.404;2023-09-30T01:52:35;6.03;;;2.58;;
78322;SDS011;67583;50.616;-3.404;2023-09-30T01:55:01;4.53;;;2.08;;
78322;SDS011;67583;50.616;-3.404;2023-09-30T01:57:27;4.53;;;2.20;;
78322;SDS011;67583;50.616;-3.404;2023-09-30T01:59:52;7.50;;;2.10;;
78322;SDS011;67583;50.616;-3.404;2023-09-30T02:02:18;4.63;;;1.90;;
78322;SDS011;67583;50.616;-3.404;2023-09-30T02:04:43;3.50;;;1.80;;
78322;SDS011;67583;50.616;-3.404;2023-09-30T02:07:09;5.13;;;2.20;;
78322;SDS011;67583;50.616;-3.404;2023-09-30T02:09:34;4.70;;;2.00;;
78322;SDS011;67583;50.616;-3.404;2023-09-30T02:12:00;8.18;;;2.67;;
78322;SDS011;67583;50.616;-3.404;2023-09-30T02:14:25;7.95;;;2.35;;
78322;SDS011;67583;50.616;-3.404;2023-09-30T02:16:50;5.25;;;1.80;;
78322;SDS011;67583;50.616;-3.404;2023-09-30T02:19:16;3.70;;;1.88;;
78322;SDS011;67583;50.616;-3.404;2023-09-30T02:21:41;5.18;;;1.95;;
78322;SDS011;67583;50.616;-3.404;2023-09-30T02:24:07;4.32;;;1.95;;
78322;SDS011;67583;50.616;-3.404;2023-09-30T02:26:32;4.68;;;1.70;;
78322;SDS011;67583;50.616;-3.404;2023-09-30T02:28:58;4.47;;;1.70;;
78322;SDS011;67583;50.616;-3.404;2023-09-30T02:31:23;4.63;;;1.85;;
78322;SDS011;67583;50.616;-3.404;2023-09-30T02:33:49;4.93;;;1.55;;
78322;SDS011;67583;50.616;-3.404;2023-09-30T02:36:14;2.70;;;1.50;;
78322;SDS011;67583;50.616;-3.404;2023-09-30T02:38:40;5.75;;;1.77;;
78322;SDS011;67583;50.616;-3.404;2023-09-30T02:41:06;4.32;;;1.50;;
78322;SDS011;67583;50.616;-3.404;2023-09-30T02:43:32;6.18;;;2.03;;
78322;SDS011;67583;50.616;-3.404;2023-09-30T02:45:57;3.47;;;1.70;;
78322;SDS011;67583;50.616;-3.404;2023-09-30T02:48:23;5.00;;;1.95;;
78322;SDS011;67583;50.616;-3.404;2023-09-30T02:50:48;7.78;;;1.95;;
78322;SDS011;67583;50.616;-3.404;2023-09-30T02:53:14;5.88;;;2.35;;
78322;SDS011;67583;50.616;-3.404;2023-09-30T02:55:40;7.35;;;2.00;;
78322;SDS011;67583;50.616;-3.404;2023-09-30T02:58:06;8.80;;;2.95;;
78322;SDS011;67583;50.616;-3.404;2023-09-30T03:00:33;4.90;;;1.80;;
78322;SDS011;67583;50.616;-3.404;2023-09-30T03:03:00;4.03;;;1.90;;
78322;SDS011;67583;50.616;-3.404;2023-09-30T03:05:26;4.35;;;2.15;;
78322;SDS011;67583;50.616;-3.404;2023-09-30T03:07:52;4.63;;;1.70;;
78322;SDS011;67583;50.616;-3.404;2023-09-30T03:10:19;5.28;;;1.80;;
78322;SDS011;67583;50.616;-3.404;2023-09-30T03:12:46;5.57;;;2.00;;
78322;SDS011;67583;50.616;-3.404;2023-09-30T03:15:15;4.95;;;1.90;;
78322;SDS011;67583;50.616;-3.404;2023-09-30T03:17:41;3.92;;;1.73;;
78322;SDS011;67583;50.616;-3.404;2023-09-30T03:20:06;3.22;;;1.83;;
78322;SDS011;67583;50.616;-3.404;2023-09-30T03:22:35;5.95;;;2.45;;
78322;SDS011;67583;50.616;-3.404;2023-09-30T03:25:01;6.75;;;2.20;;
78322;SDS011;67583;50.616;-3.404;2023-09-30T03:27:27;6.32;;;2.10;;
78322;SDS011;67583;50.616;-3.404;2023-09-30T03:29:52;4.97;;;2.30;;
78322;SDS011;67583;50.616;-3.404;2023-09-30T03:32:17;7.15;;;2.00;;
78322;SDS011;67583;50.616;-3.404;2023-09-30T03:34:43;15.00;;;2.58;;
78322;SDS011;67583;50.616;-3.404;2023-09-30T03:37:11;7.38;;;2.70;;
78322;SDS011;67583;50.616;-3.404;2023-09-30T03:39:36;5.00;;;2.50;;
78322;SDS011;67583;50.616;-3.404;2023-09-30T03:42:02;8.15;;;2.08;;
78322;SDS011;67583;50.616;-3.404;2023-09-30T03:44:28;5.32;;;2.90;;
78322;SDS011;67583;50.616;-3.404;2023-09-30T03:46:54;2.30;;;1.55;;
78322;SDS011;67583;50.616;-3.404;2023-09-30T03:49:19;5.57;;;2.50;;
78322;SDS011;67583;50.616;-3.404;2023-09-30T03:51:45;4.95;;;2.38;;
78322;SDS011;67583;50.616;-3.404;2023-09-30T03:54:11;5.20;;;2.40;;
78322;SDS011;67583;50.616;-3.404;2023-09-30T03:56:36;3.08;;;1.90;;
78322;SDS011;67583;50.616;-3.404;2023-09-30T03:59:03;4.75;;;2.10;;
78322;SDS011;67583;50.616;-3.404;2023-09-30T04:01:29;6.20;;;2.50;;
78322;SDS011;67583;50.616;-3.404;2023-09-30T04:03:55;2.90;;;1.90;;
78322;SDS011;67583;50.616;-3.404;2023-09-30T04:06:21;3.08;;;2.13;;
78322;SDS011;67583;50.616;-3.404;2023-09-30T04:08:47;5.97;;;2.17;;
78322;SDS011;67583;50.616;-3.404;2023-09-30T04:11:12;4.45;;;2.17;;
78322;SDS011;67583;50.616;-3.404;2023-09-30T04:13:43;6.80;;;2.53;;
78322;SDS011;67583;50.616;-3.404;2023-09-30T04:16:09;7.65;;;3.00;;
78322;SDS011;67583;50.616;-3.404;2023-09-30T04:18:35;7.80;;;2.53;;
78322;SDS011;67583;50.616;-3.404;2023-09-30T04:21:00;6.70;;;2.80;;
78322;SDS011;67583;50.616;-3.404;2023-09-30T04:23:29;9.75;;;2.70;;
78322;SDS011;67583;50.616;-3.404;2023-09-30T04:25:54;8.52;;;2.47;;
78322;SDS011;67583;50.616;-3.404;2023-09-30T04:28:19;9.48;;;2.60;;
78322;SDS011;67583;50.616;-3.404;2023-09-30T04:30:49;5.07;;;2.78;;
78322;SDS011;67583;50.616;-3.404;2023-09-30T04:33:15;6.97;;;2.75;;
78322;SDS011;67583;50.616;-3.404;2023-09-30T04:35:42;10.38;;;3.00;;
78322;SDS011;67583;50.616;-3.404;2023-09-30T04:38:08;8.23;;;2.08;;
78322;SDS011;67583;50.616;-3.404;2023-09-30T04:40:34;7.00;;;2.50;;
78322;SDS011;67583;50.616;-3.404;2023-09-30T04:42:59;7.38;;;2.53;;
78322;SDS011;67583;50.616;-3.404;2023-09-30T04:45:25;8.02;;;2.53;;
78322;SDS011;67583;50.616;-3.404;2023-09-30T04:47:51;7.25;;;2.80;;
78322;SDS011;67583;50.616;-3.404;2023-09-30T04:50:17;4.93;;;2.63;;
78322;SDS011;67583;50.616;-3.404;2023-09-30T04:52:43;4.80;;;2.60;;
78322;SDS011;67583;50.616;-3.404;2023-09-30T04:55:09;4.55;;;2.05;;
78322;SDS011;67583;50.616;-3.404;2023-09-30T04:57:37;4.30;;;2.33;;
78322;SDS011;67583;50.616;-3.404;2023-09-30T05:00:02;3.40;;;2.38;;
78322;SDS011;67583;50.616;-3.404;2023-09-30T05:02:36;4.05;;;2.70;;
78322;SDS011;67583;50.616;-3.404;2023-09-30T05:05:02;6.10;;;2.58;;
78322;SDS011;67583;50.616;-3.404;2023-09-30T05:07:30;6.38;;;2.75;;
78322;SDS011;67583;50.616;-3.404;2023-09-30T05:09:56;7.45;;;3.03;;
78322;SDS011;67583;50.616;-3.404;2023-09-30T05:12:21;7.60;;;2.80;;
78322;SDS011;67583;50.616;-3.404;2023-09-30T05:14:46;6.18;;;3.30;;
78322;SDS011;67583;50.616;-3.404;2023-09-30T05:17:13;10.40;;;3.25;;
78322;SDS011;67583;50.616;-3.404;2023-09-30T05:19:38;6.15;;;2.90;;
78322;SDS011;67583;50.616;-3.404;2023-09-30T05:22:04;4.88;;;3.35;;
78322;SDS011;67583;50.616;-3.404;2023-09-30T05:24:30;6.80;;;2.63;;
78322;SDS011;67583;50.616;-3.404;2023-09-30T05:26:56;6.78;;;2.55;;
78322;SDS011;67583;50.616;-3.404;2023-09-30T05:29:21;10.93;;;3.47;;
78322;SDS011;67583;50.616;-3.404;2023-09-30T05:31:47;9.55;;;3.50;;
78322;SDS011;67583;50.616;-3.404;2023-09-30T05:34:13;5.90;;;2.97;;
78322;SDS011;67583;50.616;-3.404;2023-09-30T05:36:38;6.10;;;2.75;;
78322;SDS011;67583;50.616;-3.404;2023-09-30T05:39:03;7.03;;;3.10;;
78322;SDS011;67583;50.616;-3.404;2023-09-30T05:41:30;8.55;;;5.05;;
78322;SDS011;67583;50.616;-3.404;2023-09-30T05:43:56;7.97;;;2.85;;
78322;SDS011;67583;50.616;-3.404;2023-09-30T05:46:21;8.90;;;2.85;;
78322;SDS011;67583;50.616;-3.404;2023-09-30T05:48:46;5.72;;;2.50;;
78322;SDS011;67583;50.616;-3.404;2023-09-30T05:51:12;6.20;;;2.42;;
78322;SDS011;67583;50.616;-3.404;2023-09-30T05:53:40;6.97;;;4.28;;
78322;SDS011;67583;50.616;-3.404;2023-09-30T05:56:06;6.18;;;2.70;;
78322;SDS011;67583;50.616;-3.404;2023-09-30T05:58:32;4.43;;;2.30;;
78322;SDS011;67583;50.616;-3.404;2023-09-30T06:00:57;5.35;;;2.47;;
78322;SDS011;67583;50.616;-3.404;2023-09-30T06:03:25;9.95;;;2.95;;
78322;SDS011;67583;50.616;-3.404;2023-09-30T06:05:50;10.43;;;3.53;;
78322;SDS011;67583;50.616;-3.404;2023-09-30T06:08:16;7.55;;;2.60;;
78322;SDS011;67583;50.616;-3.404;2023-09-30T06:10:41;5.97;;;2.97;;
78322;SDS011;67583;50.616;-3.404;2023-09-30T06:13:11;6.30;;;3.53;;
78322;SDS011;67583;50.616;-3.404;2023-09-30T06:15:37;7.88;;;2.88;;
78322;SDS011;67583;50.616;-3.404;2023-09-30T06:18:05;7.15;;;3.10;;
78322;SDS011;67583;50.616;-3.404;2023-09-30T06:20:31;7.05;;;3.60;;
78322;SDS011;67583;50.616;-3.404;2023-09-30T06:22:56;10.25;;;4.22;;
78322;SDS011;67583;50.616;-3.404;2023-09-30T06:25:22;9.23;;;4.35;;
78322;SDS011;67583;50.616;-3.404;2023-09-30T06:27:49;6.40;;;3.05;;
78322;SDS011;67583;50.616;-3.404;2023-09-30T06:30:15;7.65;;;2.92;;
78322;SDS011;67583;50.616;-3.404;2023-09-30T06:32:41;7.22;;;3.35;;
78322;SDS011;67583;50.616;-3.404;2023-09-30T06:35:07;5.95;;;2.90;;
78322;SDS011;67583;50.616;-3.404;2023-09-30T06:37:35;6.00;;;3.25;;
78322;SDS011;67583;50.616;-3.404;2023-09-30T06:40:07;6.97;;;2.83;;
78322;SDS011;67583;50.616;-3.404;2023-09-30T06:42:33;5.15;;;2.50;;
78322;SDS011;67583;50.616;-3.404;2023-09-30T06:45:00;5.22;;;3.08;;
78322;SDS011;67583;50.616;-3.404;2023-09-30T06:47:26;6.97;;;3.22;;
78322;SDS011;67583;50.616;-3.404;2023-09-30T06:49:52;5.32;;;2.45;;
78322;SDS011;67583;50.616;-3.404;2023-09-30T06:52:17;8.90;;;3.08;;
78322;SDS011;67583;50.616;-3.404;2023-09-30T06:54:42;6.28;;;2.83;;
78322;SDS011;67583;50.616;-3.404;2023-09-30T06:57:08;6.10;;;2.80;;
78322;SDS011;67583;50.616;-3.404;2023-09-30T06:59:34;5.22;;;2.80;;
78322;SDS011;67583;50.616;-3.404;2023-09-30T07:02:00;6.13;;;2.78;;
78322;SDS011;67583;50.616;-3.404;2023-09-30T07:04:25;4.68;;;2.78;;
78322;SDS011;67583;50.616;-3.404;2023-09-30T07:06:52;7.20;;;2.72;;
78322;SDS011;67583;50.616;-3.404;2023-09-30T07:09:18;5.88;;;3.25;;
78322;SDS011;67583;50.616;-3.404;2023-09-30T07:11:44;6.82;;;3.13;;
78322;SDS011;67583;50.616;-3.404;2023-09-30T07:14:10;7.90;;;3.75;;
78322;SDS011;67583;50.616;-3.404;2023-09-30T07:16:36;5.55;;;2.58;;
78322;SDS011;67583;50.616;-3.404;2023-09-30T07:19:01;5.50;;;2.78;;
78322;SDS011;67583;50.616;-3.404;2023-09-30T07:21:28;8.45;;;2.60;;
78322;SDS011;67583;50.616;-3.404;2023-09-30T07:23:53;8.10;;;3.40;;
78322;SDS011;67583;50.616;-3.404;2023-09-30T07:26:22;8.65;;;3.33;;
78322;SDS011;67583;50.616;-3.404;2023-09-30T07:28:49;8.52;;;3.10;;
78322;SDS011;67583;50.616;-3.404;2023-09-30T07:31:14;5.28;;;3.47;;
78322;SDS011;67583;50.616;-3.404;2023-09-30T07:33:39;10.18;;;3.85;;
78322;SDS011;67583;50.616;-3.404;2023-09-30T07:36:05;11.35;;;3.47;;
78322;SDS011;67583;50.616;-3.404;2023-09-30T07:38:30;8.55;;;3.67;;
78322;SDS011;67583;50.616;-3.404;2023-09-30T07:40:56;4.28;;;2.78;;
78322;SDS011;67583;50.616;-3.404;2023-09-30T07:43:21;6.53;;;3.05;;
78322;SDS011;67583;50.616;-3.404;2023-09-30T07:45:47;12.98;;;4.03;;
78322;SDS011;67583;50.616;-3.404;2023-09-30T07:48:13;8.40;;;4.10;;
78322;SDS011;67583;50.616;-3.404;2023-09-30T07:50:39;9.32;;;3.85;;
78322;SDS011;67583;50.616;-3.404;2023-09-30T07:53:04;10.82;;;3.63;;
78322;SDS011;67583;50.616;-3.404;2023-09-30T07:55:30;6.53;;;3.25;;
78322;SDS011;67583;50.616;-3.404;2023-09-30T07:57:56;12.02;;;3.60;;
78322;SDS011;67583;50.616;-3.404;2023-09-30T08:00:22;6.72;;;3.00;;
78322;SDS011;67583;50.616;-3.404;2023-09-30T08:02:48;6.25;;;3.72;;
78322;SDS011;67583;50.616;-3.404;2023-09-30T08:05:15;8.43;;;3.20;;
78322;SDS011;67583;50.616;-3.404;2023-09-30T08:07:40;7.85;;;3.25;;
78322;SDS011;67583;50.616;-3.404;2023-09-30T08:10:06;13.60;;;4.00;;
78322;SDS011;67583;50.616;-3.404;2023-09-30T08:12:37;8.10;;;3.60;;
78322;SDS011;67583;50.616;-3.404;2023-09-30T08:15:02;7.22;;;3.80;;
78322;SDS011;67583;50.616;-3.404;2023-09-30T08:17:28;10.05;;;3.58;;
78322;SDS011;67583;50.616;-3.404;2023-09-30T08:19:53;9.05;;;3.45;;
78322;SDS011;67583;50.616;-3.404;2023-09-30T08:22:19;10.00;;;3.40;;
78322;SDS011;67583;50.616;-3.404;2023-09-30T08:24:44;9.23;;;3.03;;
78322;SDS011;67583;50.616;-3.404;2023-09-30T08:27:10;10.10;;;2.70;;
78322;SDS011;67583;50.616;-3.404;2023-09-30T08:29:35;9.02;;;3.28;;
78322;SDS011;67583;50.616;-3.404;2023-09-30T08:32:01;8.43;;;3.45;;
78322;SDS011;67583;50.616;-3.404;2023-09-30T08:34:28;12.52;;;3.33;;
78322;SDS011;67583;50.616;-3.404;2023-09-30T08:36:54;11.68;;;3.40;;
78322;SDS011;67583;50.616;-3.404;2023-09-30T08:39:19;11.13;;;2.90;;
78322;SDS011;67583;50.616;-3.404;2023-09-30T08:41:44;6.20;;;2.50;;
78322;SDS011;67583;50.616;-3.404;2023-09-30T08:44:10;11.20;;;3.08;;
78322;SDS011;67583;50.616;-3.404;2023-09-30T08:46:36;7.57;;;2.70;;
78322;SDS011;67583;50.616;-3.404;2023-09-30T08:49:02;10.95;;;2.65;;
78322;SDS011;67583;50.616;-3.404;2023-09-30T08:51:29;11.45;;;3.95;;
78322;SDS011;67583;50.616;-3.404;2023-09-30T08:53:55;10.18;;;2.28;;
78322;SDS011;67583;50.616;-3.404;2023-09-30T08:56:24;7.72;;;2.10;;
78322;SDS011;67583;50.616;-3.404;2023-09-30T09:01:24;10.25;;;2.30;;
78322;SDS011;67583;50.616;-3.404;2023-09-30T09:03:49;15.90;;;3.58;;
78322;SDS011;67583;50.616;-3.404;2023-09-30T09:06:18;7.70;;;2.40;;
78322;SDS011;67583;50.616;-3.404;2023-09-30T09:08:44;8.45;;;2.13;;
78322;SDS011;67583;50.616;-3.404;2023-09-30T09:11:09;11.05;;;2.47;;
78322;SDS011;67583;50.616;-3.404;2023-09-30T09:13:56;9.23;;;2.13;;
78322;SDS011;67583;50.616;-3.404;2023-09-30T09:16:21;12.23;;;2.47;;
78322;SDS011;67583;50.616;-3.404;2023-09-30T09:18:48;12.38;;;2.72;;
78322;SDS011;67583;50.616;-3.404;2023-09-30T09:21:20;10.68;;;2.35;;
78322;SDS011;67583;50.616;-3.404;2023-09-30T09:23:53;9.70;;;2.42;;
78322;SDS011;67583;50.616;-3.404;2023-09-30T09:26:31;13.00;;;2.67;;
78322;SDS011;67583;50.616;-3.404;2023-09-30T09:29:00;12.00;;;2.78;;
78322;SDS011;67583;50.616;-3.404;2023-09-30T09:31:28;9.68;;;1.90;;
78322;SDS011;67583;50.616;-3.404;2023-09-30T09:33:54;14.32;;;2.28;;
78322;SDS011;67583;50.616;-3.404;2023-09-30T09:36:20;12.15;;;2.75;;
78322;SDS011;67583;50.616;-3.404;2023-09-30T09:38:49;6.15;;;1.52;;
78322;SDS011;67583;50.616;-3.404;2023-09-30T09:41:18;8.00;;;2.65;;
78322;SDS011;67583;50.616;-3.404;2023-09-30T09:43:44;6.32;;;2.05;;
78322;SDS011;67583;50.616;-3.404;2023-09-30T09:46:10;8.07;;;2.10;;
78322;SDS011;67583;50.616;-3.404;2023-09-30T09:48:36;9.13;;;1.83;;
78322;SDS011;67583;50.616;-3.404;2023-09-30T09:51:03;10.65;;;3.45;;
78322;SDS011;67583;50.616;-3.404;2023-09-30T09:53:30;6.80;;;1.60;;
78322;SDS011;67583;50.616;-3.404;2023-09-30T09:55:58;7.80;;;1.75;;
78322;SDS011;67583;50.616;-3.404;2023-09-30T09:58:24;7.55;;;2.80;;
78322;SDS011;67583;50.616;-3.404;2023-09-30T10:00:51;9.75;;;2.33;;
78322;SDS011;67583;50.616;-3.404;2023-09-30T10:03:16;8.70;;;2.17;;
78322;SDS011;67583;50.616;-3.404;2023-09-30T10:05:42;10.43;;;3.47;;
78322;SDS011;67583;50.616;-3.404;2023-09-30T10:08:14;7.82;;;1.85;;
78322;SDS011;67583;50.616;-3.404;2023-09-30T10:10:42;9.15;;;2.45;;
78322;SDS011;67583;50.616;-3.404;2023-09-30T10:13:08;13.98;;;2.33;;
78322;SDS011;67583;50.616;-3.404;2023-09-30T10:15:35;13.15;;;2.35;;
78322;SDS011;67583;50.616;-3.404;2023-09-30T10:18:05;13.07;;;2.58;;
78322;SDS011;67583;50.616;-3.404;2023-09-30T10:20:33;11.63;;;2.42;;
78322;SDS011;67583;50.616;-3.404;2023-09-30T10:25:47;11.98;;;2.25;;
78322;SDS011;67583;50.616;-3.404;2023-09-30T10:36:28;8.80;;;1.98;;
78322;SDS011;67583;50.616;-3.404;2023-09-30T10:38:54;8.63;;;2.40;;
78322;SDS011;67583;50.616;-3.404;2023-09-30T10:42:05;8.02;;;2.58;;
78322;SDS011;67583;50.616;-3.404;2023-09-30T10:47:00;7.60;;;2.13;;
78322;SDS011;67583;50.616;-3.404;2023-09-30T10:49:44;13.30;;;2.20;;
78322;SDS011;67583;50.616;-3.404;2023-09-30T10:52:10;12.57;;;2.45;;
78322;SDS011;67583;50.616;-3.404;2023-09-30T10:54:35;6.97;;;2.22;;
78322;SDS011;67583;50.616;-3.404;2023-09-30T10:57:01;13.18;;;2.40;;
78322;SDS011;67583;50.616;-3.404;2023-09-30T10:59:29;6.57;;;1.98;;
78322;SDS011;67583;50.616;-3.404;2023-09-30T11:02:00;10.60;;;2.20;;
78322;SDS011;67583;50.616;-3.404;2023-09-30T11:04:25;10.07;;;2.05;;
78322;SDS011;67583;50.616;-3.404;2023-09-30T11:06:52;11.52;;;2.00;;
78322;SDS011;67583;50.616;-3.404;2023-09-30T11:09:18;8.30;;;2.53;;
78322;SDS011;67583;50.616;-3.404;2023-09-30T11:11:45;13.25;;;3.10;;
78322;SDS011;67583;50.616;-3.404;2023-09-30T11:14:25;13.38;;;2.13;;
78322;SDS011;67583;50.616;-3.404;2023-09-30T11:16:53;19.80;;;4.05;;
78322;SDS011;67583;50.616;-3.404;2023-09-30T11:19:19;9.60;;;2.42;;
78322;SDS011;67583;50.616;-3.404;2023-09-30T11:21:49;8.52;;;1.95;;
78322;SDS011;67583;50.616;-3.404;2023-09-30T11:24:15;10.02;;;2.20;;
78322;SDS011;67583;50.616;-3.404;2023-09-30T11:26:41;7.85;;;2.97;;
78322;SDS011;67583;50.616;-3.404;2023-09-30T11:31:33;10.98;;;2.63;;
78322;SDS011;67583;50.616;-3.404;2023-09-30T11:33:59;11.00;;;3.55;;
78322;SDS011;67583;50.616;-3.404;2023-09-30T11:36:28;12.65;;;3.05;;
78322;SDS011;67583;50.616;-3.404;2023-09-30T11:38:55;14.32;;;4.47;;
78322;SDS011;67583;50.616;-3.404;2023-09-30T11:41:21;13.05;;;3.28;;
78322;SDS011;67583;50.616;-3.404;2023-09-30T11:46:53;9.82;;;2.80;;
78322;SDS011;67583;50.616;-3.404;2023-09-30T11:51:57;9.77;;;3.28;;
78322;SDS011;67583;50.616;-3.404;2023-09-30T11:54:34;13.50;;;2.72;;
78322;SDS011;67583;50.616;-3.404;2023-09-30T11:57:02;8.07;;;2.60;;
78322;SDS011;67583;50.616;-3.404;2023-09-30T11:59:28;12.40;;;2.65;;
78322;SDS011;67583;50.616;-3.404;2023-09-30T12:01:55;14.13;;;2.58;;
78322;SDS011;67583;50.616;-3.404;2023-09-30T12:04:20;14.27;;;2.80;;
78322;SDS011;67583;50.616;-3.404;2023-09-30T12:06:46;14.98;;;4.40;;
78322;SDS011;67583;50.616;-3.404;2023-09-30T12:09:13;13.05;;;3.92;;
78322;SDS011;67583;50.616;-3.404;2023-09-30T12:11:42;8.32;;;3.28;;
78322;SDS011;67583;50.616;-3.404;2023-09-30T12:14:11;13.13;;;3.60;;
78322;SDS011;67583;50.616;-3.404;2023-09-30T12:16:37;12.35;;;3.95;;
78322;SDS011;67583;50.616;-3.404;2023-09-30T12:19:03;19.02;;;3.13;;
78322;SDS011;67583;50.616;-3.404;2023-09-30T12:21:30;11.85;;;4.15;;
78322;SDS011;67583;50.616;-3.404;2023-09-30T12:23:56;10.32;;;3.05;;
78322;SDS011;67583;50.616;-3.404;2023-09-30T12:26:22;11.05;;;3.20;;
78322;SDS011;67583;50.616;-3.404;2023-09-30T12:28:47;11.95;;;3.42;;
78322;SDS011;67583;50.616;-3.404;2023-09-30T12:31:13;9.63;;;3.38;;
78322;SDS011;67583;50.616;-3.404;2023-09-30T12:33:39;14.68;;;3.80;;
78322;SDS011;67583;50.616;-3.404;2023-09-30T12:36:05;12.63;;;3.42;;
78322;SDS011;67583;50.616;-3.404;2023-09-30T12:38:30;18.92;;;4.72;;
78322;SDS011;67583;50.616;-3.404;2023-09-30T12:40:56;12.30;;;3.40;;
78322;SDS011;67583;50.616;-3.404;2023-09-30T12:43:21;13.63;;;3.38;;
78322;SDS011;67583;50.616;-3.404;2023-09-30T12:45:47;8.73;;;2.60;;
78322;SDS011;67583;50.616;-3.404;2023-09-30T12:48:13;12.27;;;3.08;;
78322;SDS011;67583;50.616;-3.404;2023-09-30T12:50:39;18.80;;;3.47;;
78322;SDS011;67583;50.616;-3.404;2023-09-30T12:53:05;12.38;;;3.38;;
78322;SDS011;67583;50.616;-3.404;2023-09-30T12:55:30;18.95;;;3.55;;
78322;SDS011;67583;50.616;-3.404;2023-09-30T12:57:55;17.45;;;3.72;;
78322;SDS011;67583;50.616;-3.404;2023-09-30T13:00:21;13.40;;;3.88;;
78322;SDS011;67583;50.616;-3.404;2023-09-30T13:02:50;10.80;;;2.80;;
78322;SDS011;67583;50.616;-3.404;2023-09-30T13:05:15;11.18;;;2.97;;
78322;SDS011;67583;50.616;-3.404;2023-09-30T13:07:42;11.43;;;3.25;;
78322;SDS011;67583;50.616;-3.404;2023-09-30T13:10:08;16.20;;;3.97;;
78322;SDS011;67583;50.616;-3.404;2023-09-30T13:12:34;14.85;;;3.33;;
78322;SDS011;67583;50.616;-3.404;2023-09-30T13:14:59;18.33;;;3.88;;
78322;SDS011;67583;50.616;-3.404;2023-09-30T13:17:25;10.85;;;3.97;;
78322;SDS011;67583;50.616;-3.404;2023-09-30T13:19:51;10.38;;;3.63;;
78322;SDS011;67583;50.616;-3.404;2023-09-30T13:22:19;14.43;;;3.25;;
78322;SDS011;67583;50.616;-3.404;2023-09-30T13:24:45;23.08;;;5.38;;
78322;SDS011;67583;50.616;-3.404;2023-09-30T13:27:10;10.18;;;4.15;;
78322;SDS011;67583;50.616;-3.404;2023-09-30T13:29:36;12.40;;;3.72;;
78322;SDS011;67583;50.616;-3.404;2023-09-30T13:32:01;10.70;;;3.33;;
78322;SDS011;67583;50.616;-3.404;2023-09-30T13:34:27;11.38;;;3.20;;
78322;SDS011;67583;50.616;-3.404;2023-09-30T13:36:53;12.30;;;3.40;;
78322;SDS011;67583;50.616;-3.404;2023-09-30T13:39:19;12.73;;;3.10;;
78322;SDS011;67583;50.616;-3.404;2023-09-30T13:41:45;13.10;;;3.30;;
78322;SDS011;67583;50.616;-3.404;2023-09-30T13:44:12;10.32;;;3.33;;
78322;SDS011;67583;50.616;-3.404;2023-09-30T13:46:38;17.10;;;3.25;;
78322;SDS011;67583;50.616;-3.404;2023-09-30T13:49:03;9.02;;;2.88;;
78322;SDS011;67583;50.616;-3.404;2023-09-30T13:51:29;11.30;;;4.55;;
78322;SDS011;67583;50.616;-3.404;2023-09-30T13:53:54;12.45;;;3.38;;
78322;SDS011;67583;50.616;-3.404;2023-09-30T13:56:20;10.85;;;3.45;;
78322;SDS011;67583;50.616;-3.404;2023-09-30T13:58:45;15.30;;;5.32;;
78322;SDS011;67583;50.616;-3.404;2023-09-30T14:01:12;13.10;;;3.92;;
78322;SDS011;67583;50.616;-3.404;2023-09-30T14:03:38;14.63;;;3.90;;
78322;SDS011;67583;50.616;-3.404;2023-09-30T14:06:09;17.00;;;3.95;;
78322;SDS011;67583;50.616;-3.404;2023-09-30T14:08:37;15.85;;;4.38;;
78322;SDS011;67583;50.616;-3.404;2023-09-30T14:11:03;12.35;;;3.85;;
78322;SDS011;67583;50.616;-3.404;2023-09-30T14:13:29;9.07;;;3.50;;
78322;SDS011;67583;50.616;-3.404;2023-09-30T14:15:54;8.38;;;3.05;;
78322;SDS011;67583;50.616;-3.404;2023-09-30T14:18:20;14.68;;;4.15;;
78322;SDS011;67583;50.616;-3.404;2023-09-30T14:20:45;11.18;;;3.90;;
78322;SDS011;67583;50.616;-3.404;2023-09-30T14:23:11;20.77;;;4.68;;
78322;SDS011;67583;50.616;-3.404;2023-09-30T14:25:36;17.25;;;3.60;;
78322;SDS011;67583;50.616;-3.404;2023-09-30T14:28:02;14.93;;;3.83;;
78322;SDS011;67583;50.616;-3.404;2023-09-30T14:30:27;14.55;;;3.75;;
78322;SDS011;67583;50.616;-3.404;2023-09-30T14:32:53;16.50;;;5.00;;
78322;SDS011;67583;50.616;-3.404;2023-09-30T14:35:19;13.30;;;4.13;;
78322;SDS011;67583;50.616;-3.404;2023-09-30T14:37:44;12.15;;;3.78;;
78322;SDS011;67583;50.616;-3.404;2023-09-30T14:40:10;11.93;;;4.00;;
78322;SDS011;67583;50.616;-3.404;2023-09-30T14:42:36;13.23;;;3.80;;
78322;SDS011;67583;50.616;-3.404;2023-09-30T14:45:02;15.30;;;3.92;;
78322;SDS011;67583;50.616;-3.404;2023-09-30T14:47:28;12.43;;;4.05;;
78322;SDS011;67583;50.616;-3.404;2023-09-30T14:49:53;17.85;;;4.38;;
78322;SDS011;67583;50.616;-3.404;2023-09-30T14:52:19;12.27;;;3.83;;